Time;durP1;ratioP1;P1;durP2;ratioP2;P2;SDS_P1;SDS_P2;PMS_P1;PMS_P2;Temp;Humidity;BMP_temperature;BMP_pressure;BME280_temperature;BME280_humidity;BME280_pressure;Samples;Min_cycle;Max_cycle;Signal;HPM_P1;HPM_P2
2023/08/09 00:01:16;;;;;;;6.03;1.50;;;;;;;;;;5069445;28;20043;-87
2023/08/09 00:03:42;;;;;;;5.00;1.42;;;;;;;;;;5087485;28;20075;-85
2023/08/09 00:06:09;;;;;;;7.50;1.67;;;;;;;;;;5042309;28;20097;-85
2023/08/09 00:08:35;;;;;;;4.95;2.40;;;;;;;;;;5055562;28;20044;-86
2023/08/09 00:11:01;;;;;;;8.10;2.05;;;;;;;;;;5072253;28;20373;-86
2023/08/09 00:13:27;;;;;;;6.45;1.63;;;;;;;;;;5069701;28;20087;-84
2023/08/09 00:15:53;;;;;;;4.10;1.40;;;;;;;;;;5069019;28;20058;-85
2023/08/09 00:18:20;;;;;;;4.13;1.50;;;;;;;;;;5070886;28;20044;-83
2023/08/09 00:20:46;;;;;;;11.80;2.17;;;;;;;;;;5066720;28;20513;-85
2023/08/09 00:23:13;;;;;;;7.68;1.67;;;;;;;;;;5048556;28;20147;-85
2023/08/09 00:25:40;;;;;;;8.98;1.67;;;;;;;;;;5082998;28;20055;-86
2023/08/09 00:28:06;;;;;;;7.65;1.77;;;;;;;;;;5068001;27;20081;-87
2023/08/09 00:30:32;;;;;;;5.90;1.80;;;;;;;;;;5085525;28;20048;-85
2023/08/09 00:32:58;;;;;;;7.70;2.13;;;;;;;;;;5069676;28;20097;-83
2023/08/09 00:35:24;;;;;;;5.72;1.52;;;;;;;;;;5082571;28;20171;-84
2023/08/09 00:37:50;;;;;;;5.03;1.55;;;;;;;;;;5062749;28;20047;-83
2023/08/09 00:40:17;;;;;;;6.65;1.40;;;;;;;;;;5051623;28;20142;-84
2023/08/09 00:42:43;;;;;;;5.60;1.70;;;;;;;;;;5085888;28;20067;-84
2023/08/09 00:45:09;;;;;;;5.32;1.70;;;;;;;;;;5065217;28;20074;-84
2023/08/09 00:47:36;;;;;;;7.28;2.35;;;;;;;;;;5082233;28;20044;-85
2023/08/09 00:50:02;;;;;;;4.55;1.30;;;;;;;;;;5065560;28;20442;-82
2023/08/09 00:52:29;;;;;;;4.47;1.60;;;;;;;;;;5042605;28;20112;-81
2023/08/09 00:54:55;;;;;;;9.93;1.98;;;;;;;;;;5068353;28;20055;-81
2023/08/09 00:57:22;;;;;;;5.07;2.38;;;;;;;;;;5067194;28;20105;-81
2023/08/09 00:59:48;;;;;;;2.88;1.40;;;;;;;;;;5067716;28;20047;-81
2023/08/09 01:02:14;;;;;;;4.07;1.45;;;;;;;;;;5066426;28;20190;-81
2023/08/09 01:04:40;;;;;;;5.82;1.80;;;;;;;;;;5080339;28;20062;-81
2023/08/09 01:07:06;;;;;;;4.25;1.80;;;;;;;;;;5065780;28;20055;-81
2023/08/09 01:09:35;;;;;;;6.28;1.45;;;;;;;;;;5085005;27;20048;-80
2023/08/09 01:12:13;;;;;;;4.72;1.42;;;;;;;;;;5063288;28;20052;-81
2023/08/09 01:14:43;;;;;;;4.88;1.50;;;;;;;;;;5066778;27;20052;-81
2023/08/09 01:17:15;;;;;;;6.30;1.75;;;;;;;;;;5067139;28;20577;-82
2023/08/09 01:19:53;;;;;;;2.50;1.55;;;;;;;;;;5049916;28;20121;-82
2023/08/09 01:22:31;;;;;;;7.82;1.70;;;;;;;;;;5078413;28;20613;-82
2023/08/09 01:25:02;;;;;;;7.55;1.77;;;;;;;;;;5082000;28;20052;-79
2023/08/09 01:27:29;;;;;;;4.80;1.80;;;;;;;;;;5081611;28;20055;-80
2023/08/09 01:29:56;;;;;;;6.32;1.50;;;;;;;;;;5070207;28;20044;-82
2023/08/09 01:32:23;;;;;;;7.75;1.55;;;;;;;;;;5081956;28;20070;-82
2023/08/09 01:34:49;;;;;;;5.50;1.58;;;;;;;;;;5049501;28;20051;-81
2023/08/09 01:37:21;;;;;;;6.00;1.60;;;;;;;;;;5065379;28;20680;-82
2023/08/09 01:39:50;;;;;;;9.57;1.52;;;;;;;;;;5052421;28;20040;-82
2023/08/09 01:42:16;;;;;;;7.32;1.70;;;;;;;;;;5083016;28;20059;-82
2023/08/09 01:44:43;;;;;;;4.18;1.40;;;;;;;;;;5065546;28;20394;-82
2023/08/09 01:47:09;;;;;;;6.60;1.55;;;;;;;;;;5051295;28;20439;-82
2023/08/09 01:49:37;;;;;;;4.88;1.60;;;;;;;;;;5068614;28;20077;-82
2023/08/09 01:52:04;;;;;;;2.53;1.50;;;;;;;;;;5074573;28;20047;-82
2023/08/09 01:54:30;;;;;;;8.13;1.70;;;;;;;;;;5059343;28;20196;-82
2023/08/09 01:56:56;;;;;;;2.45;1.30;;;;;;;;;;5092053;28;20070;-81
2023/08/09 01:59:23;;;;;;;7.22;1.60;;;;;;;;;;5068073;28;20098;-82
2023/08/09 02:01:49;;;;;;;6.57;1.52;;;;;;;;;;5066783;28;20315;-81
2023/08/09 02:04:15;;;;;;;8.43;1.55;;;;;;;;;;5081762;28;20771;-81
2023/08/09 02:06:41;;;;;;;4.65;1.38;;;;;;;;;;5067039;28;20055;-80
2023/08/09 02:09:07;;;;;;;1.67;1.30;;;;;;;;;;5044548;28;20058;-82
2023/08/09 02:11:33;;;;;;;3.28;1.67;;;;;;;;;;5050454;28;20055;-81
2023/08/09 02:13:59;;;;;;;3.85;1.30;;;;;;;;;;5043865;28;20105;-81
2023/08/09 02:16:26;;;;;;;5.57;1.60;;;;;;;;;;5046411;28;20051;-81
2023/08/09 02:18:52;;;;;;;4.97;1.52;;;;;;;;;;5065856;28;20150;-81
2023/08/09 02:21:18;;;;;;;5.47;1.48;;;;;;;;;;5084331;27;20040;-81
2023/08/09 02:23:44;;;;;;;3.85;1.38;;;;;;;;;;5079404;28;20118;-81
2023/08/09 02:26:10;;;;;;;5.82;1.70;;;;;;;;;;5069831;28;20067;-80
2023/08/09 02:28:36;;;;;;;12.68;2.05;;;;;;;;;;5100739;28;20454;-80
2023/08/09 02:31:02;;;;;;;6.53;1.63;;;;;;;;;;5065969;28;20036;-80
2023/08/09 02:33:28;;;;;;;6.57;1.60;;;;;;;;;;5044666;27;20047;-80
2023/08/09 02:36:02;;;;;;;11.38;1.60;;;;;;;;;;5043305;28;20501;-81
2023/08/09 02:38:29;;;;;;;7.03;1.60;;;;;;;;;;5066808;28;20960;-81
2023/08/09 02:40:55;;;;;;;5.43;1.40;;;;;;;;;;5069600;28;20056;-81
2023/08/09 02:43:24;;;;;;;3.13;1.58;;;;;;;;;;5067788;28;20048;-82
2023/08/09 02:45:50;;;;;;;6.60;1.90;;;;;;;;;;5067017;28;20065;-82
2023/08/09 02:48:16;;;;;;;6.28;1.85;;;;;;;;;;5067766;28;20050;-82
2023/08/09 02:50:43;;;;;;;7.85;1.55;;;;;;;;;;5064253;28;20051;-82
2023/08/09 02:53:09;;;;;;;6.80;1.50;;;;;;;;;;5067386;28;20592;-81
2023/08/09 02:55:36;;;;;;;6.22;1.92;;;;;;;;;;5073362;28;20139;-81
2023/08/09 02:58:03;;;;;;;4.68;1.63;;;;;;;;;;5081555;28;20031;-80
2023/08/09 03:00:30;;;;;;;7.13;1.67;;;;;;;;;;5088051;28;20039;-81
2023/08/09 03:02:56;;;;;;;4.50;1.33;;;;;;;;;;5086875;28;20043;-81
2023/08/09 03:05:22;;;;;;;7.25;1.48;;;;;;;;;;5067701;28;20043;-80
2023/08/09 03:07:48;;;;;;;10.20;1.67;;;;;;;;;;5074372;28;20078;-80
2023/08/09 03:10:14;;;;;;;5.03;1.73;;;;;;;;;;5070151;28;20058;-82
2023/08/09 03:12:41;;;;;;;2.90;1.17;;;;;;;;;;5049963;28;20052;-82
2023/08/09 03:15:07;;;;;;;4.60;1.60;;;;;;;;;;5052170;28;20134;-82
2023/08/09 03:17:33;;;;;;;5.15;1.50;;;;;;;;;;5069828;28;20074;-82
2023/08/09 03:19:59;;;;;;;2.60;1.33;;;;;;;;;;5052806;28;20509;-81
2023/08/09 03:22:25;;;;;;;7.30;1.42;;;;;;;;;;5065110;28;20071;-81
2023/08/09 03:24:51;;;;;;;3.65;1.50;;;;;;;;;;5048113;28;20055;-82
2023/08/09 03:27:18;;;;;;;5.68;1.35;;;;;;;;;;5066728;28;20569;-82
2023/08/09 03:29:44;;;;;;;4.20;1.52;;;;;;;;;;5067574;28;20051;-82
2023/08/09 03:32:10;;;;;;;5.55;1.60;;;;;;;;;;5067427;28;20051;-82
2023/08/09 03:34:36;;;;;;;8.10;1.58;;;;;;;;;;5028755;28;20083;-82
2023/08/09 03:37:02;;;;;;;4.93;1.65;;;;;;;;;;5055628;28;20048;-82
2023/08/09 03:39:28;;;;;;;8.68;1.77;;;;;;;;;;5069831;28;20102;-82
2023/08/09 03:41:54;;;;;;;5.97;1.60;;;;;;;;;;5068990;28;20044;-82
2023/08/09 03:44:21;;;;;;;8.40;2.08;;;;;;;;;;5063846;28;20739;-81
2023/08/09 03:46:47;;;;;;;7.82;1.60;;;;;;;;;;5065777;28;20069;-82
2023/08/09 03:49:13;;;;;;;3.72;1.40;;;;;;;;;;5071618;28;20056;-81
2023/08/09 03:51:39;;;;;;;6.75;2.15;;;;;;;;;;5063534;28;20048;-82
2023/08/09 03:54:05;;;;;;;8.20;2.10;;;;;;;;;;5069273;28;20142;-82
2023/08/09 03:56:31;;;;;;;3.88;1.65;;;;;;;;;;5049810;28;20074;-82
2023/08/09 03:58:57;;;;;;;3.58;1.90;;;;;;;;;;5063079;28;20058;-82
2023/08/09 04:01:23;;;;;;;3.08;1.48;;;;;;;;;;5066356;28;20201;-81
2023/08/09 04:03:49;;;;;;;5.25;1.80;;;;;;;;;;5048268;28;20066;-82
2023/08/09 04:06:16;;;;;;;7.05;1.85;;;;;;;;;;5062220;28;20047;-82
2023/08/09 04:08:42;;;;;;;6.47;3.08;;;;;;;;;;5070740;28;20049;-82
2023/08/09 04:11:08;;;;;;;6.45;2.13;;;;;;;;;;5050764;28;20276;-83
2023/08/09 04:13:34;;;;;;;4.38;1.85;;;;;;;;;;5067077;28;20578;-82
2023/08/09 04:16:00;;;;;;;4.25;1.90;;;;;;;;;;5030417;28;20051;-82
2023/08/09 04:18:26;;;;;;;5.13;1.55;;;;;;;;;;5067806;28;20083;-82
2023/08/09 04:20:52;;;;;;;3.78;1.52;;;;;;;;;;5067393;28;20086;-83
2023/08/09 04:23:19;;;;;;;13.00;3.38;;;;;;;;;;5051877;28;20059;-82
2023/08/09 04:25:46;;;;;;;6.68;2.50;;;;;;;;;;5057611;28;20618;-81
2023/08/09 04:28:12;;;;;;;7.45;2.08;;;;;;;;;;5066846;28;20037;-81
2023/08/09 04:30:38;;;;;;;8.10;2.20;;;;;;;;;;5053729;28;20047;-81
2023/08/09 04:33:04;;;;;;;2.47;1.60;;;;;;;;;;5071325;28;20052;-81
2023/08/09 04:35:31;;;;;;;6.85;1.88;;;;;;;;;;5047864;28;20295;-82
2023/08/09 04:37:57;;;;;;;4.65;1.80;;;;;;;;;;5067105;28;20135;-82
2023/08/09 04:40:25;;;;;;;4.15;1.63;;;;;;;;;;5061365;28;20074;-80
2023/08/09 04:42:51;;;;;;;11.27;2.15;;;;;;;;;;5051976;28;20052;-82
2023/08/09 04:45:18;;;;;;;5.90;1.60;;;;;;;;;;5063770;28;20131;-81
2023/08/09 04:47:44;;;;;;;6.07;1.52;;;;;;;;;;5071670;28;20782;-80
2023/08/09 04:50:10;;;;;;;4.40;1.90;;;;;;;;;;5058051;28;20048;-81
2023/08/09 04:52:38;;;;;;;4.75;2.03;;;;;;;;;;5065226;28;20516;-82
2023/08/09 04:55:04;;;;;;;6.43;2.05;;;;;;;;;;5063857;28;20056;-82
2023/08/09 04:57:33;;;;;;;5.03;1.77;;;;;;;;;;5033739;28;20129;-82
2023/08/09 04:59:59;;;;;;;3.47;1.73;;;;;;;;;;5029293;28;20074;-83
2023/08/09 05:02:25;;;;;;;6.50;1.80;;;;;;;;;;5063728;28;20047;-81
2023/08/09 05:04:51;;;;;;;7.18;1.80;;;;;;;;;;5045832;28;20093;-80
2023/08/09 05:07:17;;;;;;;7.32;1.58;;;;;;;;;;5048433;28;20048;-82
2023/08/09 05:09:44;;;;;;;3.47;1.40;;;;;;;;;;5066399;28;20047;-83
2023/08/09 05:12:10;;;;;;;2.55;1.50;;;;;;;;;;5049124;28;21439;-82
2023/08/09 05:14:36;;;;;;;10.50;1.40;;;;;;;;;;5051873;28;20056;-82
2023/08/09 05:17:02;;;;;;;4.40;2.22;;;;;;;;;;5064196;28;20044;-82
2023/08/09 05:19:28;;;;;;;10.60;1.85;;;;;;;;;;5084409;28;20208;-81
2023/08/09 05:21:54;;;;;;;3.83;1.70;;;;;;;;;;5067690;28;20052;-82
2023/08/09 05:24:20;;;;;;;6.30;1.65;;;;;;;;;;5065893;28;20465;-81
2023/08/09 05:26:46;;;;;;;2.00;1.13;;;;;;;;;;5070440;28;20067;-81
2023/08/09 05:29:12;;;;;;;7.78;2.05;;;;;;;;;;5072715;28;20110;-82
2023/08/09 05:31:38;;;;;;;5.63;1.67;;;;;;;;;;5070674;28;20835;-82
2023/08/09 05:34:04;;;;;;;2.30;1.42;;;;;;;;;;5048745;28;20051;-82
2023/08/09 05:36:30;;;;;;;11.43;1.55;;;;;;;;;;5069233;28;20066;-82
2023/08/09 05:38:56;;;;;;;3.97;1.58;;;;;;;;;;5065635;28;20048;-83
2023/08/09 05:41:23;;;;;;;7.13;1.63;;;;;;;;;;5066015;28;20488;-81
2023/08/09 05:43:49;;;;;;;8.73;1.55;;;;;;;;;;5065276;28;20051;-82
2023/08/09 05:46:15;;;;;;;4.10;1.40;;;;;;;;;;5077832;28;20083;-82
2023/08/09 05:48:41;;;;;;;5.65;1.75;;;;;;;;;;5063432;27;20424;-82
2023/08/09 05:51:07;;;;;;;5.93;1.45;;;;;;;;;;5078467;28;20051;-81
2023/08/09 05:53:33;;;;;;;5.47;2.10;;;;;;;;;;5071645;27;20043;-81
2023/08/09 05:55:59;;;;;;;4.68;1.50;;;;;;;;;;5073702;28;20294;-82
2023/08/09 05:58:26;;;;;;;5.63;1.90;;;;;;;;;;5047359;28;20048;-77
2023/08/09 06:00:52;;;;;;;7.43;1.52;;;;;;;;;;5064966;28;20545;-76
2023/08/09 06:03:18;;;;;;;8.52;1.50;;;;;;;;;;5066418;28;20139;-76
2023/08/09 06:05:44;;;;;;;4.70;1.85;;;;;;;;;;5067227;28;20595;-76
2023/08/09 06:08:10;;;;;;;6.50;1.63;;;;;;;;;;5064701;28;20590;-76
2023/08/09 06:10:37;;;;;;;4.30;1.60;;;;;;;;;;5068097;28;20047;-76
2023/08/09 06:13:03;;;;;;;6.57;1.60;;;;;;;;;;5070045;28;21742;-75
2023/08/09 06:15:29;;;;;;;6.50;1.27;;;;;;;;;;5036943;28;20109;-76
2023/08/09 06:17:56;;;;;;;5.75;1.90;;;;;;;;;;5067858;28;20039;-75
2023/08/09 06:20:22;;;;;;;9.85;1.52;;;;;;;;;;5054405;28;20058;-76
2023/08/09 06:22:48;;;;;;;5.70;2.08;;;;;;;;;;5050761;28;20078;-76
2023/08/09 06:25:16;;;;;;;12.30;2.15;;;;;;;;;;5032032;28;20177;-75
2023/08/09 06:27:42;;;;;;;7.03;1.98;;;;;;;;;;5056438;28;20048;-75
2023/08/09 06:30:08;;;;;;;4.53;1.38;;;;;;;;;;5062075;28;20121;-75
2023/08/09 06:32:34;;;;;;;10.82;1.10;;;;;;;;;;5026760;28;20056;-76
2023/08/09 06:35:01;;;;;;;4.72;1.15;;;;;;;;;;5037583;28;20083;-76
2023/08/09 06:37:27;;;;;;;4.80;1.10;;;;;;;;;;5055099;28;20802;-75
2023/08/09 06:39:54;;;;;;;5.53;1.67;;;;;;;;;;5038076;28;20591;-76
2023/08/09 06:42:20;;;;;;;8.88;1.20;;;;;;;;;;5037652;28;20408;-76
2023/08/09 06:44:46;;;;;;;3.42;1.05;;;;;;;;;;5053558;28;20032;-76
2023/08/09 06:47:12;;;;;;;4.32;1.08;;;;;;;;;;5053493;28;20059;-75
2023/08/09 06:49:38;;;;;;;7.25;1.35;;;;;;;;;;5054847;28;20075;-76
2023/08/09 06:52:04;;;;;;;6.43;1.50;;;;;;;;;;5053514;28;20404;-76
2023/08/09 06:54:31;;;;;;;11.63;1.35;;;;;;;;;;5036707;28;20135;-76
2023/08/09 06:56:57;;;;;;;2.97;0.98;;;;;;;;;;5072748;28;20055;-76
2023/08/09 06:59:23;;;;;;;9.18;1.60;;;;;;;;;;5051850;28;20143;-76
2023/08/09 07:01:49;;;;;;;8.70;1.30;;;;;;;;;;5052705;28;20055;-76
2023/08/09 07:04:16;;;;;;;5.35;1.20;;;;;;;;;;5050531;28;20575;-77
2023/08/09 07:06:42;;;;;;;8.02;1.20;;;;;;;;;;5036031;28;20364;-77
2023/08/09 07:09:11;;;;;;;7.72;1.50;;;;;;;;;;5041578;28;20079;-76
2023/08/09 07:11:37;;;;;;;7.63;2.60;;;;;;;;;;5055604;28;20052;-76
2023/08/09 07:14:03;;;;;;;4.35;1.02;;;;;;;;;;5045963;28;20570;-76
2023/08/09 07:16:29;;;;;;;5.93;1.10;;;;;;;;;;5055372;28;20463;-76
2023/08/09 07:18:55;;;;;;;3.88;1.08;;;;;;;;;;5055173;28;20480;-75
2023/08/09 07:21:22;;;;;;;7.13;1.40;;;;;;;;;;5048339;28;20056;-76
2023/08/09 07:23:48;;;;;;;8.27;1.20;;;;;;;;;;5047950;28;20052;-76
2023/08/09 07:26:14;;;;;;;3.97;1.30;;;;;;;;;;5024847;28;20071;-76
2023/08/09 07:28:40;;;;;;;6.18;1.63;;;;;;;;;;5033171;28;20055;-76
2023/08/09 07:31:20;;;;;;;5.15;1.58;;;;;;;;;;5033993;28;20044;-77
2023/08/09 07:33:46;;;;;;;5.43;1.17;;;;;;;;;;5035907;28;20082;-77
2023/08/09 07:36:12;;;;;;;7.35;1.27;;;;;;;;;;5032188;28;20051;-79
2023/08/09 07:38:38;;;;;;;6.10;1.50;;;;;;;;;;5069066;28;20044;-81
2023/08/09 07:41:05;;;;;;;11.60;2.05;;;;;;;;;;5047490;28;20492;-81
2023/08/09 07:43:31;;;;;;;8.38;1.10;;;;;;;;;;5048876;28;20136;-82
2023/08/09 07:45:57;;;;;;;5.57;1.27;;;;;;;;;;5048710;28;20162;-82
2023/08/09 07:48:23;;;;;;;5.32;1.20;;;;;;;;;;5049393;28;20040;-81
2023/08/09 07:50:49;;;;;;;6.80;1.67;;;;;;;;;;5048865;28;20054;-81
2023/08/09 07:53:16;;;;;;;5.75;1.30;;;;;;;;;;5048129;28;20700;-81
2023/08/09 07:55:42;;;;;;;6.05;1.40;;;;;;;;;;5047374;28;20056;-81
2023/08/09 07:58:09;;;;;;;5.05;1.20;;;;;;;;;;5046422;28;20044;-82
2023/08/09 08:00:35;;;;;;;6.22;1.58;;;;;;;;;;5033964;28;20058;-81
2023/08/09 08:03:01;;;;;;;3.08;1.17;;;;;;;;;;5030403;28;20114;-81
2023/08/09 08:05:27;;;;;;;6.55;1.10;;;;;;;;;;5027928;28;20446;-81
2023/08/09 08:07:53;;;;;;;4.18;1.20;;;;;;;;;;5050402;28;20410;-81
2023/08/09 08:10:19;;;;;;;6.72;1.75;;;;;;;;;;5038925;28;20044;-81
2023/08/09 08:12:48;;;;;;;6.90;1.75;;;;;;;;;;5069110;28;20062;-81
2023/08/09 08:15:15;;;;;;;4.13;1.23;;;;;;;;;;5051474;28;20060;-81
2023/08/09 08:17:42;;;;;;;4.07;1.38;;;;;;;;;;5053964;28;20557;-81
2023/08/09 08:20:15;;;;;;;6.20;1.08;;;;;;;;;;5056234;28;20066;-81
2023/08/09 08:22:45;;;;;;;5.60;1.10;;;;;;;;;;5066217;28;20045;-81
2023/08/09 08:25:19;;;;;;;6.70;1.33;;;;;;;;;;5033878;28;20102;-81
2023/08/09 08:27:45;;;;;;;4.95;1.90;;;;;;;;;;5069299;28;20122;-82
2023/08/09 08:30:20;;;;;;;7.25;1.38;;;;;;;;;;5049840;28;20070;-81
2023/08/09 08:32:47;;;;;;;2.13;1.00;;;;;;;;;;5069297;28;20063;-81
2023/08/09 08:35:14;;;;;;;4.60;1.33;;;;;;;;;;5054110;28;20063;-81
2023/08/09 08:37:41;;;;;;;3.17;1.00;;;;;;;;;;5054984;28;20138;-81
2023/08/09 08:40:09;;;;;;;6.72;1.15;;;;;;;;;;5047973;28;20138;-84
2023/08/09 08:42:36;;;;;;;5.95;1.17;;;;;;;;;;5059934;28;20080;-83
2023/08/09 08:45:09;;;;;;;9.80;1.30;;;;;;;;;;5062899;28;20078;-83
2023/08/09 08:47:38;;;;;;;5.75;1.00;;;;;;;;;;5045733;28;20051;-83
2023/08/09 08:50:05;;;;;;;4.47;1.10;;;;;;;;;;5070658;28;20168;-83
2023/08/09 08:52:31;;;;;;;2.92;1.00;;;;;;;;;;5071803;28;22001;-83
2023/08/09 08:54:57;;;;;;;9.63;2.38;;;;;;;;;;5054923;28;20214;-83
2023/08/09 08:57:26;;;;;;;5.90;1.08;;;;;;;;;;5074441;28;20055;-81
2023/08/09 08:59:52;;;;;;;7.95;0.93;;;;;;;;;;5066773;28;20124;-79
2023/08/09 09:02:19;;;;;;;4.82;1.10;;;;;;;;;;5047761;28;20052;-79
2023/08/09 09:04:46;;;;;;;5.25;1.63;;;;;;;;;;5052315;28;20043;-80
2023/08/09 09:07:12;;;;;;;9.75;1.58;;;;;;;;;;5075476;28;20050;-80
2023/08/09 09:09:56;;;;;;;8.48;0.98;;;;;;;;;;5052914;28;20048;-80
2023/08/09 09:12:22;;;;;;;5.40;1.40;;;;;;;;;;5065577;28;20184;-80
2023/08/09 09:14:51;;;;;;;3.45;1.00;;;;;;;;;;5059202;28;20059;-83
2023/08/09 09:17:18;;;;;;;3.95;0.85;;;;;;;;;;5073323;28;20043;-84
2023/08/09 09:19:44;;;;;;;3.05;0.85;;;;;;;;;;5058116;28;20147;-83
2023/08/09 09:22:25;;;;;;;5.35;1.27;;;;;;;;;;5040909;28;20081;-82
2023/08/09 09:24:51;;;;;;;4.82;0.93;;;;;;;;;;5058783;28;20062;-83
2023/08/09 09:27:18;;;;;;;3.00;0.70;;;;;;;;;;5072697;28;20105;-83
2023/08/09 09:29:46;;;;;;;4.38;1.05;;;;;;;;;;5069081;28;20052;-84
2023/08/09 09:32:12;;;;;;;3.60;1.25;;;;;;;;;;5089213;28;20054;-85
2023/08/09 09:34:39;;;;;;;4.32;1.08;;;;;;;;;;5054830;28;20105;-84
2023/08/09 09:37:05;;;;;;;2.05;0.80;;;;;;;;;;5073080;28;20043;-84
2023/08/09 09:39:31;;;;;;;2.33;1.20;;;;;;;;;;5092019;28;20056;-85
2023/08/09 09:41:58;;;;;;;3.13;0.95;;;;;;;;;;5105693;28;20063;-84
2023/08/09 09:44:24;;;;;;;5.22;1.10;;;;;;;;;;5061792;28;20039;-85
2023/08/09 09:46:54;;;;;;;8.25;0.90;;;;;;;;;;5084572;28;20109;-84
2023/08/09 09:49:20;;;;;;;1.92;0.90;;;;;;;;;;5073968;28;20055;-84
2023/08/09 09:51:49;;;;;;;2.97;0.90;;;;;;;;;;5063725;28;20048;-82
2023/08/09 09:54:16;;;;;;;2.78;0.80;;;;;;;;;;5057797;28;20138;-72
2023/08/09 09:56:42;;;;;;;2.25;1.05;;;;;;;;;;5041186;28;20054;-78
2023/08/09 09:59:08;;;;;;;17.00;1.65;;;;;;;;;;5086942;28;20051;-78
2023/08/09 10:01:35;;;;;;;2.35;1.05;;;;;;;;;;5054773;28;20134;-78
2023/08/09 10:04:06;;;;;;;4.43;1.15;;;;;;;;;;5069077;28;20044;-78
2023/08/09 10:06:34;;;;;;;3.35;1.13;;;;;;;;;;5070269;28;20327;-78
2023/08/09 10:09:01;;;;;;;4.53;1.60;;;;;;;;;;5070232;28;20051;-78
2023/08/09 10:11:28;;;;;;;4.13;1.05;;;;;;;;;;5071611;28;20116;-78
2023/08/09 10:13:56;;;;;;;4.40;1.00;;;;;;;;;;5090883;28;20491;-78
2023/08/09 10:16:23;;;;;;;3.63;1.02;;;;;;;;;;5069056;28;20587;-78
2023/08/09 10:18:58;;;;;;;3.28;0.93;;;;;;;;;;5068297;28;20387;-78
2023/08/09 10:21:26;;;;;;;4.18;1.23;;;;;;;;;;5066843;28;20065;-78
2023/08/09 10:23:57;;;;;;;5.82;1.25;;;;;;;;;;5070363;28;20048;-76
2023/08/09 10:26:29;;;;;;;3.90;1.00;;;;;;;;;;5060430;28;20047;-77
2023/08/09 10:29:07;;;;;;;2.17;1.10;;;;;;;;;;5064328;28;20559;-77
2023/08/09 10:31:53;;;;;;;6.15;1.15;;;;;;;;;;5065917;28;20054;-77
2023/08/09 10:34:20;;;;;;;2.55;0.82;;;;;;;;;;5066781;28;20051;-78
2023/08/09 10:36:51;;;;;;;2.38;0.93;;;;;;;;;;5069574;28;20046;-78
2023/08/09 10:39:18;;;;;;;3.33;0.98;;;;;;;;;;5068065;28;20056;-78
2023/08/09 10:41:57;;;;;;;3.15;0.95;;;;;;;;;;5065225;28;20512;-78
2023/08/09 10:44:33;;;;;;;2.72;1.00;;;;;;;;;;5057243;28;20519;-78
2023/08/09 10:47:06;;;;;;;4.53;1.00;;;;;;;;;;5069376;28;20048;-78
2023/08/09 10:49:33;;;;;;;3.05;1.08;;;;;;;;;;5077191;28;20075;-78
2023/08/09 10:52:11;;;;;;;3.55;1.30;;;;;;;;;;5079121;28;20044;-78
2023/08/09 10:54:37;;;;;;;2.30;0.95;;;;;;;;;;5058711;28;20518;-78
2023/08/09 10:57:08;;;;;;;2.53;0.82;;;;;;;;;;5084197;28;20131;-78
2023/08/09 10:59:34;;;;;;;4.80;0.93;;;;;;;;;;5069639;28;20796;-78
2023/08/09 11:02:01;;;;;;;2.80;1.15;;;;;;;;;;5054879;28;20118;-79
2023/08/09 11:04:27;;;;;;;1.80;0.88;;;;;;;;;;5083303;27;20041;-78
2023/08/09 11:06:53;;;;;;;4.90;0.90;;;;;;;;;;5068150;28;20049;-78
2023/08/09 11:09:21;;;;;;;5.55;1.23;;;;;;;;;;5052899;28;20043;-78
2023/08/09 11:11:48;;;;;;;1.75;0.88;;;;;;;;;;5054938;28;20484;-78
2023/08/09 11:14:15;;;;;;;3.10;1.00;;;;;;;;;;5068453;28;20139;-78
2023/08/09 11:16:41;;;;;;;5.40;0.90;;;;;;;;;;5065385;28;20086;-78
2023/08/09 11:19:12;;;;;;;2.03;0.90;;;;;;;;;;5051200;28;20048;-78
2023/08/09 11:21:38;;;;;;;4.68;1.10;;;;;;;;;;5065758;28;20073;-79
2023/08/09 11:24:07;;;;;;;3.53;1.17;;;;;;;;;;5067374;28;22541;-78
2023/08/09 11:26:34;;;;;;;3.40;1.13;;;;;;;;;;5067459;28;20056;-79
2023/08/09 11:29:01;;;;;;;3.60;1.00;;;;;;;;;;5069177;28;20047;-78
2023/08/09 11:31:27;;;;;;;2.88;1.00;;;;;;;;;;5063281;28;20048;-78
2023/08/09 11:33:58;;;;;;;3.17;1.23;;;;;;;;;;5069950;28;20109;-77
2023/08/09 11:36:30;;;;;;;2.78;1.23;;;;;;;;;;5048251;28;20178;-77
2023/08/09 11:39:00;;;;;;;5.50;1.42;;;;;;;;;;5044483;28;20527;-79
2023/08/09 11:41:27;;;;;;;5.65;1.63;;;;;;;;;;5062355;28;20044;-78
2023/08/09 11:43:54;;;;;;;3.92;1.20;;;;;;;;;;5052014;28;20052;-79
2023/08/09 11:46:24;;;;;;;4.13;1.15;;;;;;;;;;5062517;28;20821;-80
2023/08/09 11:48:51;;;;;;;7.78;1.48;;;;;;;;;;5082689;28;20158;-81
2023/08/09 11:51:21;;;;;;;4.30;1.40;;;;;;;;;;5049664;28;22155;-80
2023/08/09 11:53:48;;;;;;;3.15;1.10;;;;;;;;;;5051276;28;20082;-80
2023/08/09 11:56:18;;;;;;;7.72;1.20;;;;;;;;;;5051005;28;20183;-80
2023/08/09 11:58:45;;;;;;;6.03;1.10;;;;;;;;;;5049517;28;20048;-80
2023/08/09 12:01:20;;;;;;;5.28;1.10;;;;;;;;;;5050136;28;20058;-80
2023/08/09 12:03:47;;;;;;;3.97;1.40;;;;;;;;;;5061816;28;20064;-79
2023/08/09 12:06:14;;;;;;;10.27;1.23;;;;;;;;;;5065886;28;20055;-79
2023/08/09 12:08:40;;;;;;;10.10;1.50;;;;;;;;;;5069563;28;20404;-79
2023/08/09 12:11:06;;;;;;;2.72;1.05;;;;;;;;;;5066684;28;20527;-78
2023/08/09 12:13:33;;;;;;;3.22;1.15;;;;;;;;;;5066658;28;20155;-78
2023/08/09 12:16:00;;;;;;;4.55;1.00;;;;;;;;;;5067416;28;20051;-79
2023/08/09 12:18:27;;;;;;;2.72;1.00;;;;;;;;;;5066076;28;20396;-79
2023/08/09 12:20:55;;;;;;;2.90;0.90;;;;;;;;;;5051275;28;20059;-79
2023/08/09 12:23:22;;;;;;;4.03;1.05;;;;;;;;;;5066766;28;20344;-80
2023/08/09 12:25:48;;;;;;;7.15;1.33;;;;;;;;;;5066744;28;20051;-78
2023/08/09 12:28:14;;;;;;;4.97;1.60;;;;;;;;;;5064827;28;20190;-78
2023/08/09 12:30:41;;;;;;;5.10;1.33;;;;;;;;;;5063061;28;20051;-78
2023/08/09 12:33:08;;;;;;;6.70;1.30;;;;;;;;;;5048005;28;20055;-78
2023/08/09 12:35:35;;;;;;;6.53;1.40;;;;;;;;;;5067980;28;20052;-78
2023/08/09 12:38:01;;;;;;;4.55;1.40;;;;;;;;;;5049040;28;20462;-79
2023/08/09 12:40:27;;;;;;;3.15;1.20;;;;;;;;;;5064870;28;20304;-79
2023/08/09 12:42:53;;;;;;;9.90;2.35;;;;;;;;;;5064721;28;20159;-80
2023/08/09 12:45:19;;;;;;;2.90;1.08;;;;;;;;;;5050933;28;20209;-79
2023/08/09 12:47:45;;;;;;;8.77;2.00;;;;;;;;;;5048157;28;20380;-80
2023/08/09 12:50:11;;;;;;;4.57;1.13;;;;;;;;;;5065929;28;20056;-79
2023/08/09 12:52:38;;;;;;;7.05;1.27;;;;;;;;;;5064758;28;20487;-79
2023/08/09 12:55:04;;;;;;;6.75;1.58;;;;;;;;;;5067356;28;20044;-79
2023/08/09 12:57:30;;;;;;;6.13;1.63;;;;;;;;;;5059725;28;20114;-80
2023/08/09 12:59:57;;;;;;;6.07;1.52;;;;;;;;;;5050644;28;20048;-81
2023/08/09 13:02:23;;;;;;;6.15;1.20;;;;;;;;;;5051473;28;20078;-78
2023/08/09 13:04:50;;;;;;;4.50;1.30;;;;;;;;;;5065071;28;20372;-79
2023/08/09 13:07:16;;;;;;;3.80;1.40;;;;;;;;;;5066379;28;20198;-79
2023/08/09 13:09:42;;;;;;;7.03;1.30;;;;;;;;;;5067491;28;20052;-79
2023/08/09 13:12:09;;;;;;;4.63;1.58;;;;;;;;;;5045326;28;20048;-79
2023/08/09 13:14:36;;;;;;;13.13;2.00;;;;;;;;;;5054248;28;20090;-78
2023/08/09 13:17:02;;;;;;;9.13;1.73;;;;;;;;;;5050899;28;20044;-78
2023/08/09 13:19:30;;;;;;;8.52;1.77;;;;;;;;;;5084879;28;20087;-79
2023/08/09 13:21:56;;;;;;;9.75;1.85;;;;;;;;;;5050727;28;20048;-78
2023/08/09 13:24:22;;;;;;;7.00;1.40;;;;;;;;;;5066620;28;20051;-79
2023/08/09 13:26:48;;;;;;;8.77;1.98;;;;;;;;;;5065344;28;20047;-79
2023/08/09 13:29:14;;;;;;;5.97;1.95;;;;;;;;;;5050003;28;20060;-78
2023/08/09 13:31:41;;;;;;;11.98;1.45;;;;;;;;;;5073476;28;20063;-79
2023/08/09 13:34:08;;;;;;;3.67;1.25;;;;;;;;;;5079302;28;20055;-78
2023/08/09 13:36:34;;;;;;;8.43;1.95;;;;;;;;;;5094684;28;20055;-79
2023/08/09 13:39:00;;;;;;;10.20;2.00;;;;;;;;;;5062453;28;20400;-79
2023/08/09 13:41:26;;;;;;;9.85;2.38;;;;;;;;;;5076015;28;20052;-79
2023/08/09 13:43:52;;;;;;;14.27;1.77;;;;;;;;;;5073822;28;20118;-80
2023/08/09 13:46:18;;;;;;;9.07;1.70;;;;;;;;;;5052514;28;20577;-79
2023/08/09 13:48:44;;;;;;;7.40;1.65;;;;;;;;;;5067582;28;20051;-79
2023/08/09 13:51:10;;;;;;;10.93;1.98;;;;;;;;;;5065539;28;20087;-80
2023/08/09 13:53:36;;;;;;;9.95;2.50;;;;;;;;;;5067015;28;20067;-79
2023/08/09 13:56:03;;;;;;;8.10;2.03;;;;;;;;;;5047171;28;20048;-79
2023/08/09 13:58:29;;;;;;;9.73;2.00;;;;;;;;;;5064147;28;20460;-79
2023/08/09 14:00:58;;;;;;;8.05;1.70;;;;;;;;;;5065883;28;20052;-78
2023/08/09 14:03:24;;;;;;;7.93;1.98;;;;;;;;;;5053410;28;20063;-79
2023/08/09 14:05:51;;;;;;;6.82;1.67;;;;;;;;;;5070688;28;20517;-80
2023/08/09 14:08:18;;;;;;;5.85;1.48;;;;;;;;;;5088940;27;20059;-81
2023/08/09 14:10:44;;;;;;;7.82;1.88;;;;;;;;;;5068648;28;20560;-80
2023/08/09 14:13:10;;;;;;;9.32;1.52;;;;;;;;;;5052471;28;20130;-80
2023/08/09 14:15:36;;;;;;;7.40;1.88;;;;;;;;;;5066704;28;20060;-83
2023/08/09 14:18:03;;;;;;;7.90;1.52;;;;;;;;;;5064115;28;20055;-82
2023/08/09 14:20:29;;;;;;;5.13;1.73;;;;;;;;;;5068191;28;20684;-82
2023/08/09 14:22:55;;;;;;;5.13;1.55;;;;;;;;;;5052770;28;20142;-81
2023/08/09 14:25:25;;;;;;;9.50;1.73;;;;;;;;;;5051821;28;20591;-80
2023/08/09 14:27:52;;;;;;;6.32;1.65;;;;;;;;;;5067905;28;20045;-81
2023/08/09 14:30:18;;;;;;;8.50;1.85;;;;;;;;;;5070863;28;20782;-79
2023/08/09 14:32:44;;;;;;;5.90;1.45;;;;;;;;;;5051772;28;20059;-79
2023/08/09 14:35:11;;;;;;;9.38;2.00;;;;;;;;;;5065166;28;20358;-79
2023/08/09 14:37:37;;;;;;;5.63;1.73;;;;;;;;;;5053862;28;20052;-79
2023/08/09 14:40:07;;;;;;;7.20;1.60;;;;;;;;;;5068159;28;20618;-78
2023/08/09 14:42:34;;;;;;;10.55;1.90;;;;;;;;;;5064613;28;20044;-79